Sonic Adventure (DX): Time Rankings

Records: Times | Rings | Scores | Races | Bosses | Freestyle
Leaders: Times | Rings | Scores | Races | Bosses | Freestyle | Overall
Rank Player Percent Points Date
1 Gamepro011 99.1% 50 11-27-19
2 Sonicspeedruner 97.9% 118 11-27-19
3 Niczur 95.2% 277 11-27-19
4 Dashjump 93.9% 351 11-27-19
5 Jawzun 93.9% 352 11-27-19
6 DarkPolarNight 92.9% 411 11-27-19
7 drminus 90.8% 535 11-27-19
8 F-Man 90.6% 546 11-27-19
9 THC98 90.2% 566 11-27-19
10 ike6252 88.3% 680 11-27-19
11 Avento128bits 87.9% 699 11-27-19
12 francisco 87.5% 727 11-27-19
13 DarkspinesSonic 87.0% 753 11-27-19
14 ethmar 87.0% 755 11-27-19
15 Marth 86.9% 760 11-27-19
16 frankoredstrato 85.6% 837 11-27-19
17 chainchump 84.0% 929 11-27-19
18 TheRealShadnic 83.9% 932 11-27-19
19 Nim 83.5% 957 11-27-19
20 Paragod 82.7% 1004 11-27-19
21 HyperSonic7701 82.5% 1014 11-27-19
22 Calfd 82.2% 1035 11-27-19
23 Coolfansonic 79.5% 1189 11-27-19
24 InferSaime 79.3% 1202 11-27-19
25 Stefan 78.0% 1278 11-27-19
26 xXMegaManXx 77.9% 1283 11-27-19
27 PfoSonic 77.4% 1310 11-27-19
28 bertin 75.7% 1413 11-27-19
29 yoshifan 75.3% 1433 11-27-19
30 Dave Cramer 73.6% 1533 11-27-19
31 RPGnutter 73.5% 1542 11-27-19
32 sonicam 71.8% 1638 11-27-19
33 Cybrax 71.4% 1661 11-27-19
34 Dekuboy 70.4% 1721 11-27-19
35 Ring Rush 68.9% 1808 11-27-19
36 mike89 68.1% 1857 11-27-19
37 NintenDan 67.9% 1866 11-27-19
38 chaos shadow 67.7% 1875 11-27-19
39 a_moustache 66.7% 1933 11-27-19
40 SkyLights 64.4% 2067 11-27-19
41 Combo 63.0% 2154 11-27-19
42 iden1 62.9% 2158 11-27-19
43 SADXTryHard 60.5% 2298 11-27-19
44 P1 Pause 60.0% 2324 11-27-19
45 WeegeeZV 58.9% 2392 11-27-19
46 Groudon199 58.2% 2431 11-27-19
47 AxlThunder 57.8% 2454 11-27-19
48 Game_Complete 57.5% 2474 11-27-19
49 Shadow Jacky 57.4% 2479 11-27-19
50 VMU Player Banned 56.6% 2523 11-27-19
51 Thorn 56.2% 2547 11-27-19
52 SB737 55.1% 2613 11-27-19
53 The Knuckles Chao 54.9% 2623 11-27-19
54 SadisticMystic 54.8% 2629 11-27-19
55 Chao_Fan 54.7% 2636 11-27-19
56 Parax 54.4% 2650 11-27-19
57 Mastakirby 54.2% 2666 11-27-19
58 KinkyCadence 53.8% 2689 11-27-19
59 mauserman 53.7% 2693 11-27-19
60 OmegaDJ 53.6% 2696 11-27-19
61 LittleBigness 53.6% 2698 11-27-19
62 Psyknux 53.5% 2706 11-27-19
63 Auriman1 53.0% 2734 11-27-19
64 magnum12 52.9% 2739 11-27-19
65 Turbos 52.5% 2764 11-27-19
66 GerbilSoft 51.8% 2803 11-27-19
67 GreatStar 51.5% 2820 11-27-19
68 Webber3000 51.1% 2842 11-27-19
69 Hipertails12 50.7% 2869 11-27-19
70 N 50.3% 2890 11-27-19
71 James_Bertolli 48.1% 3021 11-27-19
72 Cream147 47.7% 3041 11-27-19
73 SPVLABS 47.3% 3064 11-27-19
74 welldooder64 46.8% 3093 11-27-19
75 Skylace 46.8% 3096 11-27-19
76 Omega Rafael Santos 46.8% 3097 11-27-19
77 Diamond 46.5% 3110 11-27-19
77 Quartz 46.5% 3110 11-27-19
79 Psymar 46.3% 3122 11-27-19
80 SonicWinDX 45.7% 3157 11-27-19
81 teamblackarms 45.2% 3187 11-27-19
82 Cyan Ryan 44.7% 3216 11-27-19
83 Andrea Ritsu 44.5% 3229 11-27-19
84 buddychaos0415 44.4% 3233 11-27-19
85 SilverSonic 43.9% 3265 11-27-19
86 paulie9990 43.4% 3295 11-27-19
87 SilvertheAlmighty 43.3% 3298 11-27-19
88 itsPersonnal 42.8% 3329 11-27-19
89 metanightmare22 42.4% 3350 11-27-19
90 CoEmpathy 40.7% 3448 11-27-19
91 lordmetalsonic 40.2% 3477 11-27-19
92 Arch 39.9% 3496 11-27-19
93 Termon 39.0% 3546 11-27-19
94 videogamemaster777 39.0% 3548 11-27-19
95 supersonicfan 38.7% 3568 11-27-19
96 Drakodan 38.2% 3596 11-27-19
97 Kanimayo_Jp 37.9% 3611 11-27-19
98 LilZero 37.8% 3620 11-27-19
99 supersonic465 37.4% 3640 11-27-19
100 FuzZerd 37.4% 3641 11-27-19
101 JamminX42 36.9% 3671 11-27-19
102 eggFL 36.8% 3679 11-27-19
103 BigAL49 36.6% 3691 11-27-19
104 Don 36.3% 3706 11-27-19
105 danieldude 36.1% 3720 11-27-19
106 Fr3nZy 35.2% 3770 11-27-19
107 Siavash Tazari 35.1% 3776 11-27-19
108 Zurggriff 35.0% 3783 11-27-19
109 f0rever_zer0 34.3% 3825 11-27-19
110 Cod4Scopes 34.1% 3831 11-27-19
111 Austinf 33.5% 3869 11-27-19
112 LinksDarkArrows 33.2% 3886 11-27-19
113 Therio 33.2% 3889 11-27-19
114 elecmouse101 32.5% 3927 11-27-19
115 Staf 32.2% 3946 11-27-19
116 ModifiedMonkee 31.9% 3963 11-27-19
117 R3FR4G 31.8% 3965 11-27-19
118 MiStEr_ShAoLiN 31.8% 3968 11-27-19
119 Twilisailor 31.4% 3992 11-27-19
120 BrokenArthritis 31.3% 3994 11-27-19
121 videogamer1014 31.2% 4003 11-27-19
122 Xia 30.7% 4029 11-27-19
123 AC-Tygo 30.5% 4043 11-27-19
124 welshmoose05 30.3% 4057 11-27-19
125 OddCook 29.6% 4093 11-27-19
126 The Great Lord Mick 29.3% 4111 11-27-19
127 Mcshuggets 29.0% 4128 11-27-19
128 Aitamen 29.0% 4130 11-27-19
129 Maxinfamily 28.8% 4142 11-27-19
130 joecoolgames 28.5% 4158 11-27-19
130 Matt_TY 28.5% 4158 11-27-19
132 dabestgamer 28.2% 4179 11-27-19
133 Irregular Zero 28.0% 4187 11-27-19
134 SuperBlitzCraig 28.0% 4188 11-27-19
135 SuperSonic101 27.1% 4241 11-27-19
136 Shadowthegreat 26.9% 4254 11-27-19
137 superjupi 26.8% 4261 11-27-19
138 Hunters13 26.7% 4266 11-27-19
139 Rolken 26.4% 4284 11-27-19
139 thewaytodawnnn 26.4% 4284 11-27-19
141 sonamyfan666 25.9% 4310 11-27-19
142 iarebored 25.8% 4316 11-27-19
143 SaviourDC 25.8% 4318 11-27-19
144 koinu93 25.7% 4320 11-27-19
145 SonicKnuckles 25.6% 4330 11-27-19
146 Spinballwizard 25.6% 4331 11-27-19
147 EngiNerd 24.4% 4396 11-27-19
148 SonicAD 24.4% 4397 11-27-19
149 adf 24.4% 4398 11-27-19
150 Megaman EXE565 23.6% 4448 11-27-19
151 The T 23.4% 4454 11-27-19
152 Sonic Singularity 22.8% 4491 11-27-19
153 Pokemonmaster888 22.6% 4502 11-27-19
154 Platformer 22.6% 4505 11-27-19
155 SeaWolf 22.5% 4510 11-27-19
156 timpkmn89 22.2% 4524 11-27-19
157 Swift Hobo 22.2% 4528 11-27-19
158 Sondow 21.4% 4573 11-27-19
159 Rickyman48 21.4% 4575 11-27-19
160 Sm4sh 20.8% 4609 11-27-19
161 FoxBoy 20.8% 4610 11-27-19
162 KitsuneYamaro 20.7% 4612 11-27-19
163 TFEC Headshot 20.4% 4632 11-27-19
164 Jerzia 20.3% 4639 11-27-19
165 Kogen Player Banned 19.7% 4674 11-27-19
166 Badlex727 19.6% 4677 11-27-19
167 Starlight Sable 19.6% 4678 11-27-19
168 IsisDazs 19.0% 4710 11-27-19
169 Powerjohn25 18.8% 4727 11-27-19
170 HyperSonic64 18.7% 4731 11-27-19
171 crazy1993 18.5% 4740 11-27-19
172 andres430 18.3% 4754 11-27-19
173 SonicU260 17.2% 4819 11-27-19
174 Swinkly 17.0% 4827 11-27-19
175 MPit08 16.9% 4837 11-27-19
176 sonicd5 16.8% 4840 11-27-19
177 iSonicKid2K 16.3% 4872 11-27-19
178 dShadow 16.0% 4890 11-27-19
179 Miles9999 15.7% 4906 11-27-19
180 Cutiefox 15.6% 4909 11-27-19
181 Chawkk 15.6% 4911 11-27-19
182 Monkeh 15.4% 4925 11-27-19
183 Crispian 15.3% 4928 11-27-19
184 DaDude 14.9% 4952 11-27-19
185 Drflash55 14.5% 4973 11-27-19
186 Bass 14.2% 4992 11-27-19
187 Yish 14.1% 4996 11-27-19
188 Cruizer 14.1% 4999 11-27-19
189 Destroyer121121 14.0% 5002 11-27-19
190 zapp 13.9% 5008 11-27-19
191 neaolas 13.9% 5010 11-27-19
192 UninspiredUsername 13.9% 5012 11-27-19
193 superiorsonic 13.7% 5022 11-27-19
194 gamefreak1292 13.5% 5031 11-27-19
195 Sora_yx 13.1% 5059 11-27-19
196 Cooljay 13.0% 5061 11-27-19
197 Chaos_Overlord 12.4% 5098 11-27-19
198 Valfore 12.0% 5118 11-27-19
199 Dage4Aquatic 11.8% 5135 11-27-19
200 GarnetPrincess 11.7% 5137 11-27-19
201 ShinigamiMachine 11.6% 5144 11-27-19
202 soniccoloursunleashed 11.5% 5150 11-27-19
203 Sonicsuperstar1 11.1% 5173 11-27-19
204 FocusSight64 10.8% 5193 11-27-19
205 Werey 10.7% 5198 11-27-19
206 booo95 10.5% 5206 11-27-19
207 Mo Player Banned 10.4% 5211 11-27-19
208 SirTobbii 10.4% 5215 11-27-19
209 Jua Rever 10.3% 5222 11-27-19
210 sonicspeed 10.2% 5225 11-27-19
211 Venick409 9.6% 5260 11-27-19
212 nman36 9.4% 5273 11-27-19
212 Sithwarrior26 9.4% 5273 11-27-19
214 ingx24 8.9% 5302 11-27-19
215 CyberShadow 8.9% 5303 11-27-19
216 dekki1234 8.5% 5324 11-27-19
217 Fozer 8.3% 5335 11-27-19
218 Egor305 8.2% 5339 11-27-19
219 Regano1000 8.1% 5345 11-27-19
220 Colomb_30 8.1% 5347 11-27-19
221 1stKirbyever 7.9% 5358 11-27-19
222 nuckrieg 7.6% 5374 11-27-19
223 TimTH 7.6% 5376 11-27-19
224 Brian_pso 7.5% 5380 11-27-19
225 douglas 7.3% 5395 11-27-19
226 TakaRikka 7.2% 5397 11-27-19
227 Th4tN1nj4Turtl3 7.2% 5402 11-27-19
228 Zip 7.0% 5411 11-27-19
229 Mariosonic15 6.7% 5427 11-27-19
229 wheatrich 6.7% 5427 11-27-19
231 MStitomix 6.6% 5437 11-27-19
232 ieatatsonic 6.5% 5441 11-27-19
233 HermitHelmet 6.5% 5443 11-27-19
234 niscool 6.4% 5446 11-27-19
235 Cort_pso 6.2% 5458 11-27-19
236 Got4n 6.1% 5463 11-27-19
237 Triseena 6.0% 5472 11-27-19
238 Jose_15 5.9% 5478 11-27-19
239 Artie 5.7% 5490 11-27-19
240 BlankTH 5.6% 5492 11-27-19
240 SuperSonicfan9595 5.6% 5492 11-27-19
242 HHNNBBHHN 5.4% 5506 11-27-19
243 Ace747 5.4% 5507 11-27-19
244 Richied 5.2% 5515 11-27-19
245 Paixii 5.2% 5518 11-27-19
246 Aiko 5.1% 5523 11-27-19
247 BallzeH 4.8% 5539 11-27-19
247 FSSRandomvids 4.8% 5539 11-27-19
249 slade23 4.8% 5540 11-27-19
250 PsyBorg 4.7% 5543 11-27-19
251 Jamixesa 4.7% 5545 11-27-19
252 Mankster101 4.7% 5546 11-27-19
253 ArcticDragon 4.7% 5547 11-27-19
254 BecauseWarAnvil 4.6% 5552 11-27-19
255 Nickson98 4.5% 5557 11-27-19
256 Crydio 4.5% 5560 11-27-19
257 TheUltraBlur 4.4% 5565 11-27-19
258 MarewBFN 4.1% 5578 11-27-19
259 stanski 4.1% 5580 11-27-19
260 tal39h 4.0% 5586 11-27-19
261 knuckles_sonic8 3.9% 5594 11-27-19
262 Blue Infamy 3.8% 5596 11-27-19
263 p0ker 3.8% 5599 11-27-19
264 ALundstrom10 3.8% 5600 11-27-19
265 ErrortheCucco 3.6% 5607 11-27-19
266 Rikum22 3.6% 5610 11-27-19
267 sonic1001 3.5% 5618 11-27-19
268 TheChaosEmeraIds 3.4% 5623 11-27-19
269 AJSIV 3.4% 5624 11-27-19
270 syco1098 3.3% 5625 11-27-19
271 Sonic the Hedgehod16 3.3% 5628 11-27-19
272 ASINISTERTACO 3.2% 5635 11-27-19
273 sonicfan9 3.1% 5640 11-27-19
274 themachoman202 2.9% 5652 11-27-19
275 MK 2.8% 5658 11-27-19
276 Fivavoa 2.7% 5661 11-27-19
277 Mr. Jones 2.7% 5663 11-27-19
278 djmat 2.6% 5665 11-27-19
279 arcfx1985 2.6% 5666 11-27-19
280 BlackArmsShadow 2.6% 5667 11-27-19
281 Sonique Hedgehog 2.6% 5669 11-27-19
282 ptorflaxendrosis 2.5% 5671 11-27-19
283 FlandreScarlet9999vr 2.5% 5673 11-27-19
284 Zeldocto 2.5% 5676 11-27-19
285 BeeAwwb 2.4% 5682 11-27-19
286 KaM Mark MaK 2.3% 5684 11-27-19
287 ShadouZaHejjihoggu 2.3% 5687 11-27-19
288 darkstarblaze 2.2% 5693 11-27-19
289 Sonic The Star 2.1% 5695 11-27-19
290 darkersupershadic 2.1% 5696 11-27-19
291 SpiritDragon1995 2.1% 5697 11-27-19
292 Sarger001 2.0% 5703 11-27-19
292 sonic29887 2.0% 5703 11-27-19
294 Grady219 2.0% 5705 11-27-19
295 shadowblast63 Player Banned 1.9% 5709 11-27-19
296 Jawaah 1.9% 5710 11-27-19
297 Antek 1.8% 5713 11-27-19
298 Klaus 1.8% 5715 11-27-19
299 BioShadow 1.7% 5722 11-27-19
300 IcKY 1.5% 5732 11-27-19
301 SkyBon 1.4% 5738 11-27-19
302 Shanekilz 1.4% 5739 11-27-19
303 isaihtb11 1.3% 5743 11-27-19
304 OhNoes! 1.3% 5744 11-27-19
305 zaktu40 1.3% 5745 11-27-19
306 ArthurVGCP 1.2% 5747 11-27-19
307 gaara1234 1.2% 5749 11-27-19
307 S-MS32X-S 1.2% 5749 11-27-19
309 MastaToken 1.1% 5756 11-27-19
310 Mister_Slick 1.0% 5760 11-27-19
311 Sonic06Fan 1.0% 5763 11-27-19
312 Rush Hero 0.9% 5765 11-27-19
313 ChaosNexuss 0.9% 5766 11-27-19
314 oTaiIilLsS 0.8% 5770 11-27-19
315 SonicMega167 0.8% 5771 11-27-19
316 gamed00d 0.8% 5774 11-27-19
316 SilverK 0.8% 5774 11-27-19
318 Burningskull123 0.5% 5790 11-27-19
319 Heroes_Hater 0.5% 5792 11-27-19
320 Sonicontherun 0.3% 5801 11-27-19
321 antiwwe 0.2% 5807 11-27-19
322 Iwannabelink 0.2% 5809 11-27-19
323 Genuine Hedgehog 0.1% 5811 11-27-19
324 dragondragon18 0.1% 5815 11-27-19
325 SonicK100 0.1% 5816 11-27-19
326 Tyrouble 0.0% 5821 11-27-19
327 LancexExWx 0.0% 5822 11-27-19
327 neji_hyuuga 0.0% 5822 11-27-19
327 Over 0.0% 5822 11-27-19
327 sdj6707 Player Banned 0.0% 5822 11-27-19
327 Tran Sonic Fan Player Banned 0.0% 5822 11-27-19

This page is using the New Data Table System. [FUTURE]

Game ID: 3 | Category ID: 1
Hits: 2,774 | Hits This Month: 5 | DB Calls: 25 | Mem Usage: 5.89 MB | Time: 0.15s | Printable

The Sonic Center v3.9
Copyright 2003-2011 by The Sonic Center Team.